Time;durP1;ratioP1;P1;durP2;ratioP2;P2;SDS_P1;SDS_P2;PMS_P1;PMS_P2;Temp;Humidity;BMP_temperature;BMP_pressure;BME280_temperature;BME280_humidity;BME280_pressure;Samples;Min_cycle;Max_cycle;Signal;HPM_P1;HPM_P2
2023/12/18 00:00:35;;;;;;;19.30;6.97;;;7.90;99.90;;;;;;4997195;28;20289;-67
2023/12/18 00:03:02;;;;;;;16.80;6.73;;;7.90;99.90;;;;;;5011612;28;20201;-67
2023/12/18 00:05:29;;;;;;;17.90;7.25;;;7.90;99.90;;;;;;4964657;28;20898;-67
2023/12/18 00:07:57;;;;;;;22.90;7.17;;;7.90;99.90;;;;;;5007111;28;20225;-67
2023/12/18 00:10:24;;;;;;;19.13;6.80;;;;;;;;;;5003012;28;20228;-67
2023/12/18 00:12:51;;;;;;;13.43;7.50;;;7.90;99.90;;;;;;5005294;28;20225;-67
2023/12/18 00:15:18;;;;;;;20.20;8.30;;;7.90;99.90;;;;;;5003442;28;20201;-67
2023/12/18 00:17:44;;;;;;;16.53;7.57;;;7.90;99.90;;;;;;5010805;28;20929;-67
2023/12/18 00:20:12;;;;;;;17.13;7.38;;;7.60;99.90;;;;;;4987729;28;20221;-67
2023/12/18 00:22:39;;;;;;;20.37;7.70;;;7.90;99.90;;;;;;4977482;28;20205;-67
2023/12/18 00:25:08;;;;;;;14.30;7.80;;;7.90;99.90;;;;;;5005478;28;20201;-67
2023/12/18 00:27:34;;;;;;;16.10;7.18;;;8.20;99.90;;;;;;4990916;28;20856;-67
2023/12/18 00:30:01;;;;;;;17.63;7.75;;;7.90;99.90;;;;;;5012551;28;20419;-67
2023/12/18 00:32:28;;;;;;;17.50;8.00;;;8.30;99.90;;;;;;4990424;28;20696;-67
2023/12/18 00:34:55;;;;;;;16.87;7.50;;;7.90;99.90;;;;;;5000022;28;20201;-67
2023/12/18 00:37:22;;;;;;;20.90;8.37;;;7.90;99.90;;;;;;4970625;28;20217;-66
2023/12/18 00:39:49;;;;;;;16.57;7.57;;;7.90;99.90;;;;;;5012242;28;20198;-67
2023/12/18 00:42:17;;;;;;;18.15;7.55;;;7.90;99.90;;;;;;5013647;28;20198;-67
2023/12/18 00:44:44;;;;;;;18.02;7.80;;;7.80;99.90;;;;;;5006702;28;20419;-67
2023/12/18 00:47:10;;;;;;;20.33;8.23;;;9.20;99.90;;;;;;5000972;28;20742;-67
2023/12/18 00:49:37;;;;;;;17.40;8.50;;;7.90;99.90;;;;;;4995729;28;20211;-67
2023/12/18 00:52:04;;;;;;;14.20;7.30;;;7.80;99.90;;;;;;5016987;28;20235;-67
2023/12/18 00:54:31;;;;;;;16.55;7.70;;;7.90;99.90;;;;;;4976111;28;20517;-67
2023/12/18 00:56:58;;;;;;;15.18;8.05;;;7.80;99.90;;;;;;5012771;28;20201;-67
2023/12/18 00:59:26;;;;;;;13.52;8.20;;;7.90;99.90;;;;;;5013033;28;20993;-67
2023/12/18 01:01:53;;;;;;;21.80;8.52;;;7.90;99.90;;;;;;5015193;28;20209;-67
2023/12/18 01:04:20;;;;;;;20.53;8.87;;;7.90;99.90;;;;;;4991045;28;20209;-67
2023/12/18 01:06:47;;;;;;;21.23;8.70;;;;;;;;;;4998677;28;20331;-67
2023/12/18 01:09:14;;;;;;;16.92;7.93;;;7.60;99.90;;;;;;4982646;28;20202;-66
2023/12/18 01:11:41;;;;;;;17.08;7.75;;;7.90;99.90;;;;;;5018413;28;20366;-67
2023/12/18 01:14:08;;;;;;;14.02;7.82;;;7.90;99.90;;;;;;5012556;28;20198;-67
2023/12/18 01:16:37;;;;;;;23.00;8.05;;;7.90;99.90;;;;;;5010508;28;20416;-67
2023/12/18 01:19:04;;;;;;;16.67;8.80;;;7.80;99.90;;;;;;5006086;28;20206;-67
2023/12/18 01:21:31;;;;;;;16.90;8.53;;;7.90;99.90;;;;;;4992305;28;20202;-67
2023/12/18 01:23:59;;;;;;;10.93;7.20;;;7.90;99.90;;;;;;5009302;28;20529;-67
2023/12/18 01:26:26;;;;;;;19.03;8.50;;;7.90;99.90;;;;;;4972440;28;20415;-67
2023/12/18 01:28:53;;;;;;;23.13;8.53;;;7.90;99.90;;;;;;5018233;28;20200;-67
2023/12/18 01:31:23;;;;;;;20.77;8.93;;;7.80;99.90;;;;;;5014505;28;20221;-67
2023/12/18 01:33:54;;;;;;;19.30;8.43;;;7.90;99.90;;;;;;5000191;28;20800;-67
2023/12/18 01:36:20;;;;;;;20.27;8.63;;;7.80;99.90;;;;;;5010030;28;20200;-67
2023/12/18 01:38:47;;;;;;;17.63;7.87;;;7.90;99.90;;;;;;5014608;28;20198;-67
2023/12/18 01:41:14;;;;;;;20.80;8.70;;;7.90;99.90;;;;;;4971119;28;20210;-67
2023/12/18 01:43:41;;;;;;;16.52;8.63;;;7.90;99.90;;;;;;5010688;28;20193;-67
2023/12/18 01:46:09;;;;;;;21.80;8.65;;;7.90;99.90;;;;;;5009582;28;20228;-67
2023/12/18 01:48:36;;;;;;;22.15;8.10;;;7.90;99.90;;;;;;5002620;28;21327;-67
2023/12/18 01:51:05;;;;;;;17.92;8.43;;;7.80;99.90;;;;;;5009565;28;20235;-67
2023/12/18 01:53:37;;;;;;;19.83;8.52;;;7.80;99.90;;;;;;5002063;28;20598;-67
2023/12/18 01:56:05;;;;;;;17.63;7.65;;;7.80;99.90;;;;;;4970113;28;20654;-67
2023/12/18 01:58:34;;;;;;;20.50;8.60;;;7.90;99.90;;;;;;5008186;28;20461;-67
2023/12/18 02:01:02;;;;;;;22.00;8.38;;;7.90;99.90;;;;;;5009007;28;20202;-67
2023/12/18 02:03:30;;;;;;;16.13;9.23;;;7.90;99.90;;;;;;4993730;28;21224;-67
2023/12/18 02:05:57;;;;;;;21.07;8.57;;;7.90;99.90;;;;;;4983597;28;20879;-67
2023/12/18 02:08:26;;;;;;;18.50;8.87;;;7.80;99.90;;;;;;5000891;28;20756;-67
2023/12/18 02:10:53;;;;;;;18.80;9.10;;;7.80;99.90;;;;;;5014644;28;20225;-67
2023/12/18 02:13:20;;;;;;;18.92;8.40;;;7.90;99.90;;;;;;4977626;28;20205;-67
2023/12/18 02:15:47;;;;;;;24.05;8.63;;;7.90;99.90;;;;;;5010518;28;20398;-67
2023/12/18 02:18:14;;;;;;;21.00;8.27;;;7.90;99.90;;;;;;5010725;28;20546;-67
2023/12/18 02:20:42;;;;;;;18.80;8.60;;;7.90;99.90;;;;;;4999687;28;20762;-67
2023/12/18 02:23:10;;;;;;;19.73;8.90;;;7.90;99.90;;;;;;5001756;28;20679;-67
2023/12/18 02:25:37;;;;;;;18.97;8.70;;;8.00;99.90;;;;;;4993148;28;20402;-67
2023/12/18 02:28:07;;;;;;;17.03;8.50;;;7.90;99.90;;;;;;4980873;28;20730;-67
2023/12/18 02:30:34;;;;;;;18.50;8.45;;;7.90;99.90;;;;;;5007196;28;20211;-67
2023/12/18 02:33:01;;;;;;;15.43;8.40;;;7.90;99.90;;;;;;5009877;28;20244;-67
2023/12/18 02:35:28;;;;;;;21.50;8.73;;;7.90;99.90;;;;;;4990595;28;20206;-67
2023/12/18 02:37:55;;;;;;;18.15;9.13;;;7.90;99.90;;;;;;4996084;28;20379;-68
2023/12/18 02:40:25;;;;;;;14.60;8.83;;;7.90;99.90;;;;;;4997290;28;20205;-67
2023/12/18 02:42:52;;;;;;;22.05;9.50;;;7.90;99.90;;;;;;4973559;28;20208;-67
2023/12/18 02:45:19;;;;;;;16.35;9.20;;;7.90;99.90;;;;;;5008323;28;20356;-67
2023/12/18 02:47:46;;;;;;;17.92;9.50;;;7.90;99.90;;;;;;5008955;28;20580;-67
2023/12/18 02:50:13;;;;;;;15.57;8.43;;;7.80;99.90;;;;;;5010229;28;20204;-67
2023/12/18 02:52:40;;;;;;;19.77;9.50;;;7.80;99.90;;;;;;5001593;28;20258;-67
2023/12/18 02:55:09;;;;;;;18.88;9.40;;;7.80;99.90;;;;;;5001356;28;20306;-67
2023/12/18 02:57:37;;;;;;;21.30;8.90;;;7.70;99.90;;;;;;5006980;28;20205;-67
2023/12/18 03:00:05;;;;;;;14.80;8.57;;;7.80;99.90;;;;;;4982633;28;20230;-67
2023/12/18 03:02:32;;;;;;;16.63;8.07;;;7.80;99.90;;;;;;5012946;28;20293;-67
2023/12/18 03:04:59;;;;;;;16.37;8.33;;;7.80;99.90;;;;;;5006400;28;20201;-67
2023/12/18 03:07:26;;;;;;;20.40;9.40;;;7.80;99.90;;;;;;4999233;28;20278;-67
2023/12/18 03:09:53;;;;;;;14.23;8.52;;;7.80;99.90;;;;;;4998578;28;20194;-67
2023/12/18 03:12:20;;;;;;;16.75;8.38;;;7.80;99.90;;;;;;5003590;28;20225;-67
2023/12/18 03:14:48;;;;;;;14.85;7.85;;;7.80;99.90;;;;;;4975947;28;20221;-67
2023/12/18 03:17:15;;;;;;;21.65;9.68;;;7.80;99.90;;;;;;5009163;28;20205;-67
2023/12/18 03:19:42;;;;;;;20.20;7.97;;;7.80;99.90;;;;;;5016512;28;20208;-67
2023/12/18 03:22:09;;;;;;;15.27;9.00;;;7.80;99.90;;;;;;4998989;28;20422;-67
2023/12/18 03:24:36;;;;;;;19.60;8.73;;;7.80;99.90;;;;;;5010202;28;20284;-67
2023/12/18 03:27:02;;;;;;;19.80;9.67;;;7.80;99.90;;;;;;4999037;28;20302;-67
2023/12/18 03:29:28;;;;;;;17.70;8.67;;;7.80;99.90;;;;;;5013380;28;20843;-67
2023/12/18 03:31:56;;;;;;;18.97;9.27;;;7.80;99.90;;;;;;4975351;28;20583;-67
2023/12/18 03:34:23;;;;;;;18.02;9.98;;;7.90;99.90;;;;;;5005504;28;20197;-67
2023/12/18 03:36:50;;;;;;;20.03;10.03;;;7.80;99.90;;;;;;5013814;28;21035;-66
2023/12/18 03:39:17;;;;;;;21.33;9.13;;;7.80;99.90;;;;;;5003996;28;20201;-67
2023/12/18 03:41:44;;;;;;;21.40;10.23;;;7.80;99.90;;;;;;5001548;28;20206;-67
2023/12/18 03:44:11;;;;;;;20.73;9.73;;;7.80;99.90;;;;;;5016022;28;20198;-66
2023/12/18 03:46:38;;;;;;;17.23;9.43;;;7.80;99.90;;;;;;4976209;28;20210;-67
2023/12/18 03:49:06;;;;;;;21.53;9.70;;;7.80;99.90;;;;;;5013950;28;20200;-67
2023/12/18 03:51:33;;;;;;;17.55;9.93;;;7.80;99.90;;;;;;5012923;28;20232;-67
2023/12/18 03:54:00;;;;;;;20.00;10.07;;;7.80;99.90;;;;;;5004525;28;23651;-67
2023/12/18 03:56:26;;;;;;;21.83;9.93;;;7.80;99.90;;;;;;5001888;28;20268;-67
2023/12/18 03:58:53;;;;;;;13.47;9.30;;;7.70;99.90;;;;;;5011968;28;20221;-67
2023/12/18 04:01:20;;;;;;;18.75;9.60;;;7.80;99.90;;;;;;4967599;28;20202;-67
2023/12/18 04:03:47;;;;;;;18.50;9.67;;;7.80;99.90;;;;;;5014598;28;20648;-67
2023/12/18 04:06:15;;;;;;;17.80;9.70;;;7.90;99.90;;;;;;4997672;28;20202;-67
2023/12/18 04:08:42;;;;;;;22.83;10.00;;;7.80;99.90;;;;;;5017864;28;20333;-67
2023/12/18 04:11:15;;;;;;;18.98;10.00;;;7.70;99.90;;;;;;5009535;28;20205;-67
2023/12/18 04:13:41;;;;;;;20.90;10.00;;;7.80;99.90;;;;;;5003889;28;21060;-67
2023/12/18 04:16:08;;;;;;;16.27;9.23;;;7.70;99.90;;;;;;4982227;28;21052;-67
2023/12/18 04:18:35;;;;;;;18.90;9.95;;;7.80;99.90;;;;;;5011977;28;20193;-66
2023/12/18 04:21:02;;;;;;;17.53;10.23;;;7.70;99.90;;;;;;5013252;28;20205;-67
2023/12/18 04:23:30;;;;;;;25.97;10.30;;;7.70;99.90;;;;;;5019710;28;20859;-67
2023/12/18 04:25:57;;;;;;;24.70;9.73;;;8.50;99.90;;;;;;4994121;28;20202;-67
2023/12/18 04:28:24;;;;;;;20.20;10.87;;;7.80;99.90;;;;;;4995316;28;20225;-66
2023/12/18 04:30:51;;;;;;;22.63;10.17;;;7.70;99.90;;;;;;5012338;28;20315;-67
2023/12/18 04:33:18;;;;;;;25.40;10.50;;;7.70;99.90;;;;;;4978241;28;20222;-67
2023/12/18 04:35:44;;;;;;;23.07;11.27;;;7.80;99.90;;;;;;5007636;28;20193;-67
2023/12/18 04:38:11;;;;;;;23.73;12.23;;;7.80;99.90;;;;;;5018291;28;20202;-67
2023/12/18 04:40:39;;;;;;;24.15;12.68;;;7.80;99.90;;;;;;5005490;28;21183;-67
2023/12/18 04:43:06;;;;;;;29.83;12.90;;;7.80;99.90;;;;;;5000756;28;20813;-67
2023/12/18 04:45:33;;;;;;;28.97;13.43;;;7.80;99.90;;;;;;5006005;28;20221;-67
2023/12/18 04:48:00;;;;;;;26.10;12.43;;;7.80;99.90;;;;;;4971471;28;20324;-67
2023/12/18 04:50:27;;;;;;;19.58;11.63;;;8.10;99.90;;;;;;5008921;28;20199;-67
2023/12/18 04:52:54;;;;;;;26.17;12.05;;;7.80;99.90;;;;;;5006958;28;20230;-67
2023/12/18 04:55:20;;;;;;;18.47;11.13;;;7.80;99.90;;;;;;5001392;28;20202;-67
2023/12/18 04:57:49;;;;;;;22.35;11.50;;;7.70;99.90;;;;;;4982562;28;20819;-67
2023/12/18 05:00:16;;;;;;;23.03;11.43;;;7.10;99.90;;;;;;5002493;28;20207;-67
2023/12/18 05:02:43;;;;;;;20.87;10.90;;;7.70;99.90;;;;;;4960251;28;20209;-67
2023/12/18 05:05:09;;;;;;;19.60;11.27;;;7.70;99.90;;;;;;4990641;28;20205;-67
2023/12/18 05:07:36;;;;;;;24.83;12.13;;;7.80;99.90;;;;;;5000696;28;20404;-67
2023/12/18 05:10:04;;;;;;;17.13;10.33;;;7.80;99.90;;;;;;4991146;28;20209;-67
2023/12/18 05:12:30;;;;;;;18.40;11.37;;;9.70;99.90;;;;;;4991572;28;20634;-67
2023/12/18 05:14:59;;;;;;;21.87;12.27;;;7.70;99.90;;;;;;5007563;28;20193;-67
2023/12/18 05:17:25;;;;;;;18.90;11.83;;;7.70;99.90;;;;;;5001406;28;20231;-67
2023/12/18 05:19:52;;;;;;;24.57;12.07;;;7.80;99.90;;;;;;4971764;28;20698;-67
2023/12/18 05:22:19;;;;;;;23.93;11.23;;;7.80;99.90;;;;;;4981524;28;20214;-67
2023/12/18 05:24:46;;;;;;;23.95;12.90;;;7.80;99.90;;;;;;4977786;28;20605;-67
2023/12/18 05:27:13;;;;;;;24.63;12.77;;;7.30;99.90;;;;;;5007429;28;20194;-67
2023/12/18 05:29:40;;;;;;;26.70;12.53;;;7.70;99.90;;;;;;4991948;28;20208;-67
2023/12/18 05:32:08;;;;;;;25.23;12.87;;;7.70;99.90;;;;;;5006975;28;20229;-67
2023/12/18 05:34:35;;;;;;;20.23;12.50;;;9.00;99.90;;;;;;4965559;28;20248;-67
2023/12/18 05:37:02;;;;;;;26.17;12.77;;;7.60;99.90;;;;;;4999684;28;20209;-67
2023/12/18 05:39:29;;;;;;;33.53;12.32;;;7.70;99.90;;;;;;4983051;28;20810;-67
2023/12/18 05:41:56;;;;;;;23.77;11.90;;;7.70;99.90;;;;;;5004869;28;20221;-67
2023/12/18 05:44:23;;;;;;;24.17;12.13;;;7.70;99.90;;;;;;4997543;28;20234;-67
2023/12/18 05:46:50;;;;;;;34.87;12.67;;;7.70;99.90;;;;;;5016652;28;20296;-67
2023/12/18 05:49:18;;;;;;;25.13;13.47;;;7.70;99.90;;;;;;4975931;28;20217;-67
2023/12/18 05:51:46;;;;;;;24.20;12.83;;;7.70;99.90;;;;;;5005725;28;20218;-67
2023/12/18 05:54:13;;;;;;;34.83;13.37;;;7.80;99.90;;;;;;4995850;28;20636;-67
2023/12/18 05:56:39;;;;;;;20.67;11.93;;;7.80;99.90;;;;;;4985669;28;20781;-67
2023/12/18 05:59:06;;;;;;;30.90;12.87;;;7.70;99.90;;;;;;4992910;28;20217;-68
2023/12/18 06:01:33;;;;;;;21.63;13.00;;;7.80;99.90;;;;;;4998079;28;20231;-67
2023/12/18 06:04:00;;;;;;;29.07;12.97;;;7.80;99.90;;;;;;4998767;28;20391;-67
2023/12/18 06:06:28;;;;;;;29.07;13.00;;;7.80;99.90;;;;;;4968907;28;20229;-67
2023/12/18 06:08:55;;;;;;;26.67;11.73;;;7.70;99.90;;;;;;4992186;28;21039;-67
2023/12/18 06:11:22;;;;;;;31.07;13.30;;;7.80;99.90;;;;;;4999404;28;20313;-67
2023/12/18 06:13:49;;;;;;;26.10;12.77;;;7.80;99.90;;;;;;4977426;28;20793;-68
2023/12/18 06:16:16;;;;;;;30.67;13.37;;;7.80;99.90;;;;;;4998643;28;20222;-68
2023/12/18 06:18:43;;;;;;;27.57;12.77;;;7.70;99.90;;;;;;4985286;28;20229;-67
2023/12/18 06:21:09;;;;;;;29.73;12.00;;;7.80;99.90;;;;;;4964887;28;27922;-68
2023/12/18 06:23:38;;;;;;;27.17;12.70;;;7.40;99.90;;;;;;5015229;28;20220;-67
2023/12/18 06:26:05;;;;;;;20.60;12.00;;;7.80;99.90;;;;;;4982570;28;20225;-68
2023/12/18 06:28:32;;;;;;;24.60;12.50;;;7.80;99.90;;;;;;5014058;28;20213;-67
2023/12/18 06:30:59;;;;;;;26.57;11.83;;;7.80;99.90;;;;;;4982928;28;20566;-67
2023/12/18 06:33:26;;;;;;;32.10;13.00;;;7.80;99.90;;;;;;4986266;28;20621;-68
2023/12/18 06:35:53;;;;;;;21.35;11.60;;;7.80;99.90;;;;;;4999773;28;20296;-67
2023/12/18 06:38:20;;;;;;;26.37;12.63;;;7.80;99.90;;;;;;4991996;28;20778;-66
2023/12/18 06:40:48;;;;;;;28.90;12.60;;;7.70;99.90;;;;;;5000239;28;20706;-67
2023/12/18 06:43:16;;;;;;;25.50;11.95;;;7.90;99.90;;;;;;4984058;28;23448;-67
2023/12/18 06:45:43;;;;;;;22.77;12.93;;;7.80;99.90;;;;;;4997237;28;20225;-67
2023/12/18 06:48:11;;;;;;;19.63;12.65;;;7.90;99.90;;;;;;4985326;28;20332;-67
2023/12/18 06:50:38;;;;;;;34.87;13.17;;;7.80;99.90;;;;;;5001466;28;20218;-67
2023/12/18 06:53:05;;;;;;;14.77;8.63;;;7.80;99.90;;;;;;4971123;28;20240;-66
2023/12/18 06:55:34;;;;;;;27.17;12.77;;;7.90;99.90;;;;;;5012193;28;20351;-66
2023/12/18 06:58:02;;;;;;;29.07;12.03;;;7.90;99.90;;;;;;5010710;28;20198;-67
2023/12/18 07:00:29;;;;;;;21.00;11.30;;;7.90;99.90;;;;;;4999458;28;20296;-66
2023/12/18 07:02:56;;;;;;;27.90;11.35;;;;;;;;;;5005508;28;20734;-67
2023/12/18 07:05:23;;;;;;;27.90;11.80;;;7.90;99.90;;;;;;4992842;28;20557;-67
2023/12/18 07:07:51;;;;;;;20.53;10.60;;;7.90;99.90;;;;;;4978647;28;20462;-66
2023/12/18 07:10:17;;;;;;;29.05;12.50;;;7.80;99.90;;;;;;5016456;28;20452;-67
2023/12/18 07:12:45;;;;;;;25.33;12.20;;;7.90;99.90;;;;;;5016338;28;20239;-67
2023/12/18 07:15:13;;;;;;;34.23;11.60;;;7.90;99.90;;;;;;5013115;28;20221;-67
2023/12/18 07:17:40;;;;;;;26.13;11.67;;;8.10;99.90;;;;;;4993913;28;22367;-67
2023/12/18 07:20:09;;;;;;;27.67;12.45;;;7.80;99.90;;;;;;5000177;28;20197;-67
2023/12/18 07:22:36;;;;;;;24.87;10.30;;;7.80;99.90;;;;;;5000751;28;20213;-67
2023/12/18 07:25:03;;;;;;;19.08;10.15;;;7.90;99.90;;;;;;4980469;28;20694;-67
2023/12/18 07:27:30;;;;;;;14.77;10.60;;;7.90;99.90;;;;;;5012164;28;20376;-66
2023/12/18 07:29:57;;;;;;;20.43;11.50;;;7.90;99.90;;;;;;5000113;28;20212;-67
2023/12/18 07:32:26;;;;;;;34.77;11.77;;;7.90;99.90;;;;;;4998735;28;22808;-67
2023/12/18 07:34:52;;;;;;;22.67;12.00;;;7.90;99.90;;;;;;4995460;28;20205;-67
2023/12/18 07:37:19;;;;;;;19.87;12.53;;;7.90;99.90;;;;;;5006583;28;20351;-67
2023/12/18 07:39:46;;;;;;;24.30;12.73;;;8.00;99.90;;;;;;4973903;28;20392;-66
2023/12/18 07:42:13;;;;;;;29.90;13.93;;;8.00;99.90;;;;;;5012925;28;20203;-66
2023/12/18 07:44:40;;;;;;;17.97;11.77;;;8.00;99.90;;;;;;4994915;28;20634;-67
2023/12/18 07:47:07;;;;;;;29.58;13.77;;;8.00;99.90;;;;;;5015604;28;20198;-67
2023/12/18 07:49:36;;;;;;;20.03;12.63;;;8.00;99.90;;;;;;4985202;28;20303;-67
2023/12/18 07:52:03;;;;;;;24.20;12.37;;;8.00;99.90;;;;;;5020152;28;20256;-67
2023/12/18 07:54:30;;;;;;;23.93;12.07;;;8.00;99.90;;;;;;4978195;28;20217;-67
2023/12/18 07:56:57;;;;;;;21.43;12.80;;;8.00;99.90;;;;;;5017289;28;20204;-67
2023/12/18 07:59:23;;;;;;;28.53;12.97;;;7.90;99.90;;;;;;5020141;28;20611;-67
2023/12/18 08:01:50;;;;;;;23.27;12.40;;;7.90;99.90;;;;;;5023461;28;20223;-67
2023/12/18 08:04:17;;;;;;;21.33;12.32;;;7.90;99.90;;;;;;5007689;28;20211;-67
2023/12/18 08:06:47;;;;;;;26.57;13.40;;;7.90;99.90;;;;;;4998565;28;20224;-67
2023/12/18 08:09:14;;;;;;;23.00;11.80;;;7.90;99.90;;;;;;4982794;28;20217;-66
2023/12/18 08:11:41;;;;;;;25.98;12.45;;;7.90;99.90;;;;;;5005525;28;20580;-67
2023/12/18 08:14:09;;;;;;;24.70;11.60;;;7.90;99.90;;;;;;4989916;28;21009;-67
2023/12/18 08:16:36;;;;;;;23.00;10.93;;;7.90;99.90;;;;;;5013728;28;20213;-67
2023/12/18 08:19:03;;;;;;;23.00;11.67;;;7.90;99.90;;;;;;5003268;28;20351;-67
2023/12/18 08:21:30;;;;;;;20.77;11.27;;;7.90;99.90;;;;;;4996283;28;20749;-67
2023/12/18 08:23:58;;;;;;;29.33;11.50;;;7.90;99.90;;;;;;4988294;28;20201;-67
2023/12/18 08:26:26;;;;;;;20.75;11.65;;;7.90;99.90;;;;;;5013949;28;20209;-67
2023/12/18 08:28:52;;;;;;;24.17;11.30;;;7.90;99.90;;;;;;5019892;28;20208;-67
2023/12/18 08:31:19;;;;;;;23.60;11.00;;;7.90;99.90;;;;;;4997104;28;21090;-67
2023/12/18 08:33:46;;;;;;;28.63;11.63;;;7.90;99.90;;;;;;5016595;28;20226;-67
2023/12/18 08:36:13;;;;;;;18.88;11.40;;;7.90;99.90;;;;;;4994327;28;20653;-67
2023/12/18 08:38:40;;;;;;;25.70;11.48;;;8.30;99.90;;;;;;5016466;28;20753;-67
2023/12/18 08:41:09;;;;;;;23.48;10.90;;;7.90;99.90;;;;;;4988597;28;20225;-67
2023/12/18 08:43:36;;;;;;;24.23;10.27;;;7.90;99.90;;;;;;5017313;28;20773;-67
2023/12/18 08:46:02;;;;;;;31.88;11.32;;;7.90;99.90;;;;;;5013391;28;20773;-67
2023/12/18 08:48:29;;;;;;;35.40;11.52;;;7.90;99.90;;;;;;5017625;28;20231;-67
2023/12/18 08:50:56;;;;;;;27.00;11.50;;;9.70;99.90;;;;;;5000341;28;20202;-67
2023/12/18 08:53:24;;;;;;;22.70;11.23;;;8.20;99.90;;;;;;5014866;28;20315;-67
2023/12/18 08:55:51;;;;;;;20.45;10.45;;;6.90;99.90;;;;;;4984143;28;20559;-67
2023/12/18 08:58:20;;;;;;;23.93;11.60;;;7.90;99.90;;;;;;5012052;28;20411;-67
2023/12/18 09:00:48;;;;;;;24.33;11.57;;;7.90;99.90;;;;;;5015871;28;20197;-67
2023/12/18 09:03:14;;;;;;;29.30;11.02;;;9.20;99.90;;;;;;5012421;28;21051;-67
2023/12/18 09:05:41;;;;;;;24.80;11.40;;;9.50;99.90;;;;;;5010931;28;20707;-67
2023/12/18 09:08:08;;;;;;;24.65;12.00;;;8.00;99.90;;;;;;4986244;28;20478;-67
2023/12/18 09:10:35;;;;;;;21.40;11.93;;;7.90;99.90;;;;;;5015714;28;20246;-67
2023/12/18 09:13:02;;;;;;;23.33;11.33;;;8.10;99.90;;;;;;4964590;28;20977;-67
2023/12/18 09:15:30;;;;;;;24.38;11.20;;;6.80;99.90;;;;;;5016463;28;20707;-67
2023/12/18 09:17:57;;;;;;;27.23;12.02;;;8.00;99.90;;;;;;5011306;28;20208;-67
2023/12/18 09:20:24;;;;;;;21.50;11.00;;;8.00;99.90;;;;;;5018813;28;20220;-67
2023/12/18 09:22:52;;;;;;;32.50;12.10;;;8.00;99.90;;;;;;5006560;28;20206;-67
2023/12/18 09:25:19;;;;;;;24.70;11.80;;;8.10;99.90;;;;;;5013967;28;20347;-67
2023/12/18 09:27:45;;;;;;;22.40;12.20;;;8.00;99.90;;;;;;4981160;28;21094;-67
2023/12/18 09:30:14;;;;;;;28.70;12.90;;;8.00;99.90;;;;;;5006394;28;20795;-67
2023/12/18 09:32:42;;;;;;;25.10;11.50;;;8.10;99.90;;;;;;5013042;28;20292;-67
2023/12/18 09:35:09;;;;;;;26.58;12.48;;;8.10;99.90;;;;;;5014994;28;20198;-67
2023/12/18 09:37:36;;;;;;;22.70;12.07;;;8.30;99.90;;;;;;4974119;28;20205;-67
2023/12/18 09:40:03;;;;;;;27.35;12.07;;;8.10;99.90;;;;;;5007897;28;20245;-67
2023/12/18 09:42:30;;;;;;;20.40;11.93;;;8.10;99.90;;;;;;4961672;28;20324;-67
2023/12/18 09:45:00;;;;;;;26.27;11.68;;;8.10;99.90;;;;;;5001738;28;21020;-67
2023/12/18 09:47:27;;;;;;;21.58;11.75;;;8.10;99.90;;;;;;5011134;28;20839;-67
2023/12/18 09:49:56;;;;;;;20.90;10.73;;;8.10;99.90;;;;;;5017550;28;20205;-67
2023/12/18 09:52:24;;;;;;;22.88;12.15;;;8.10;99.90;;;;;;4988161;28;20198;-67
2023/12/18 09:54:53;;;;;;;24.80;12.87;;;8.20;99.90;;;;;;5013431;28;20374;-66
2023/12/18 09:57:21;;;;;;;26.55;12.70;;;8.10;99.90;;;;;;4966238;28;20201;-67
2023/12/18 09:59:49;;;;;;;30.42;12.60;;;8.20;99.90;;;;;;4989920;28;20443;-67
2023/12/18 10:02:18;;;;;;;19.08;11.00;;;8.20;99.90;;;;;;5013104;28;20711;-67
2023/12/18 10:04:44;;;;;;;25.05;12.13;;;8.20;99.90;;;;;;5008195;28;20245;-67
2023/12/18 10:07:13;;;;;;;29.17;13.98;;;8.20;99.90;;;;;;4995070;28;20204;-67
2023/12/18 10:09:40;;;;;;;27.08;14.73;;;8.30;99.90;;;;;;4993351;28;20213;-67
2023/12/18 10:12:09;;;;;;;27.23;14.20;;;8.20;99.90;;;;;;4970652;28;20248;-67
2023/12/18 10:14:35;;;;;;;24.27;13.60;;;8.20;99.90;;;;;;4987721;28;20481;-66
2023/12/18 10:17:02;;;;;;;26.10;14.27;;;8.20;99.90;;;;;;5010895;28;20310;-67
2023/12/18 10:19:29;;;;;;;35.60;14.30;;;8.20;99.90;;;;;;5010706;28;20190;-67
2023/12/18 10:21:56;;;;;;;26.15;15.10;;;7.00;99.90;;;;;;4999628;28;20812;-67
2023/12/18 10:24:26;;;;;;;29.45;14.02;;;8.20;99.90;;;;;;4991929;28;20692;-67
2023/12/18 10:26:53;;;;;;;25.13;13.80;;;8.20;99.90;;;;;;5007912;28;20370;-67
2023/12/18 10:29:20;;;;;;;23.77;13.07;;;8.20;99.90;;;;;;4964815;28;20206;-67
2023/12/18 10:31:47;;;;;;;19.75;12.13;;;7.90;99.90;;;;;;4994561;28;20393;-67
2023/12/18 10:34:18;;;;;;;30.23;13.10;;;8.20;99.90;;;;;;5015519;28;20340;-67
2023/12/18 10:36:46;;;;;;;25.58;12.63;;;8.20;99.90;;;;;;5008504;28;20194;-67
2023/12/18 10:39:15;;;;;;;27.88;12.90;;;8.20;99.90;;;;;;5001248;28;20727;-67
2023/12/18 10:41:45;;;;;;;24.67;11.98;;;8.00;99.90;;;;;;5012571;28;20833;-67
2023/12/18 10:44:14;;;;;;;22.48;12.77;;;8.20;99.90;;;;;;4972927;28;20217;-67
2023/12/18 10:46:42;;;;;;;21.38;12.75;;;8.20;99.90;;;;;;4986423;28;20211;-67
2023/12/18 10:49:10;;;;;;;27.25;12.73;;;8.20;99.90;;;;;;5013231;28;20201;-67
2023/12/18 10:51:40;;;;;;;28.13;13.00;;;8.10;99.90;;;;;;4995697;28;20202;-67
2023/12/18 10:54:08;;;;;;;27.35;14.10;;;8.00;99.90;;;;;;4992518;28;20237;-67
2023/12/18 10:56:37;;;;;;;26.60;13.00;;;8.10;99.90;;;;;;5011762;28;20202;-67
2023/12/18 10:59:07;;;;;;;24.48;12.25;;;8.10;99.90;;;;;;4979656;28;20360;-67
2023/12/18 11:01:35;;;;;;;25.17;12.95;;;8.20;99.90;;;;;;5010531;28;20960;-67
2023/12/18 11:04:03;;;;;;;26.77;13.13;;;8.20;99.90;;;;;;5005018;28;20424;-67
2023/12/18 11:06:31;;;;;;;28.52;12.75;;;8.20;99.90;;;;;;5000465;28;20611;-67
2023/12/18 11:08:58;;;;;;;25.08;12.30;;;8.20;99.90;;;;;;5016198;28;20198;-67
2023/12/18 11:11:26;;;;;;;29.23;12.93;;;8.20;99.90;;;;;;5007841;28;20224;-67
2023/12/18 11:14:10;;;;;;;21.58;12.90;;;8.20;99.90;;;;;;4996543;28;20221;-67
2023/12/18 11:16:48;;;;;;;23.02;11.30;;;8.20;99.90;;;;;;5009149;28;20201;-67
2023/12/18 11:19:23;;;;;;;26.17;14.02;;;8.20;99.90;;;;;;5015159;28;20209;-66
2023/12/18 11:21:50;;;;;;;27.23;12.57;;;8.20;99.90;;;;;;5018530;28;20231;-67
2023/12/18 11:24:18;;;;;;;26.27;12.43;;;8.20;99.90;;;;;;5019873;28;20201;-66
2023/12/18 11:26:46;;;;;;;24.40;12.20;;;8.20;99.90;;;;;;5005666;28;20209;-67
2023/12/18 11:29:42;;;;;;;24.67;12.68;;;8.20;99.90;;;;;;4986427;28;20292;-67
2023/12/18 11:32:10;;;;;;;32.72;12.93;;;8.30;99.90;;;;;;5008975;28;20445;-67
2023/12/18 11:34:39;;;;;;;27.42;13.68;;;8.50;99.90;;;;;;5014256;28;20235;-67
2023/12/18 11:37:07;;;;;;;24.40;13.30;;;8.30;99.90;;;;;;5014448;28;20209;-67
2023/12/18 11:39:41;;;;;;;32.25;13.20;;;8.30;99.90;;;;;;5014802;28;20224;-67
2023/12/18 11:42:10;;;;;;;28.27;14.88;;;8.30;99.90;;;;;;4997940;28;20208;-67
2023/12/18 11:44:38;;;;;;;26.25;12.80;;;7.50;99.90;;;;;;4981919;28;21673;-67
2023/12/18 11:47:07;;;;;;;26.83;13.02;;;8.20;99.90;;;;;;5009029;28;20698;-67
2023/12/18 11:49:34;;;;;;;23.55;13.38;;;8.30;99.90;;;;;;5019570;28;20413;-66
2023/12/18 11:52:17;;;;;;;31.92;14.05;;;8.20;99.90;;;;;;5020150;28;20571;-67
2023/12/18 11:54:44;;;;;;;30.50;14.00;;;8.30;99.90;;;;;;5016852;28;20717;-67
2023/12/18 11:57:16;;;;;;;29.55;14.55;;;8.30;99.90;;;;;;5012342;28;20792;-66
2023/12/18 11:59:44;;;;;;;26.40;13.60;;;8.20;99.90;;;;;;4972327;28;20225;-67
2023/12/18 12:02:13;;;;;;;25.30;13.55;;;8.20;99.90;;;;;;5008063;28;20823;-67
2023/12/18 12:04:42;;;;;;;28.33;14.23;;;8.10;99.90;;;;;;5012496;28;20592;-67
2023/12/18 12:07:12;;;;;;;22.77;13.52;;;8.20;99.90;;;;;;5005427;28;20851;-67
2023/12/18 12:09:40;;;;;;;29.52;13.95;;;8.30;99.90;;;;;;4985328;28;20213;-67
2023/12/18 12:12:07;;;;;;;26.20;14.45;;;8.30;99.90;;;;;;4996857;28;20213;-67
2023/12/18 12:14:34;;;;;;;24.85;14.55;;;8.30;99.90;;;;;;5014357;28;20702;-67
2023/12/18 12:17:05;;;;;;;24.67;14.85;;;7.30;99.90;;;;;;4962330;28;20275;-67
2023/12/18 12:19:36;;;;;;;28.08;13.57;;;8.30;99.90;;;;;;5010470;28;20756;-66
2023/12/18 12:22:02;;;;;;;29.98;15.75;;;8.30;99.90;;;;;;5012672;28;20208;-66
2023/12/18 12:24:29;;;;;;;29.27;13.70;;;8.30;99.90;;;;;;5016607;28;20210;-66
2023/12/18 12:26:56;;;;;;;28.05;14.95;;;8.30;99.90;;;;;;5006547;28;20197;-67
2023/12/18 12:29:24;;;;;;;25.48;13.18;;;8.30;99.90;;;;;;5014798;28;20204;-66
2023/12/18 12:31:51;;;;;;;28.42;13.93;;;8.30;99.90;;;;;;4968376;28;20772;-67
2023/12/18 12:34:19;;;;;;;23.42;13.05;;;8.30;99.90;;;;;;5001453;28;20586;-67
2023/12/18 12:36:47;;;;;;;22.88;13.10;;;8.30;99.90;;;;;;4996618;28;20501;-66
2023/12/18 12:39:14;;;;;;;29.25;13.00;;;8.30;99.90;;;;;;5014727;28;20264;-66
2023/12/18 12:41:41;;;;;;;25.15;13.15;;;8.30;99.90;;;;;;5012427;28;20193;-67